createdAt,value
2018-09-19T00:00:56.497Z,13.40
2018-09-19T00:05:00.693Z,13.30
2018-09-19T00:09:07.094Z,13.20
2018-09-19T00:13:11.428Z,13.20
2018-09-19T00:17:15.608Z,13.20
2018-09-19T00:21:20.025Z,13.20
2018-09-19T00:25:24.233Z,13.20
2018-09-19T00:29:28.515Z,13.20
2018-09-19T00:33:32.713Z,13.10
2018-09-19T00:37:37.061Z,13.10
2018-09-19T00:41:41.268Z,13.00
2018-09-19T00:45:45.533Z,13.00
2018-09-19T00:49:49.703Z,13.00
2018-09-19T00:53:54.952Z,13.00
2018-09-19T00:57:59.444Z,12.90
2018-09-19T01:02:03.669Z,12.90
2018-09-19T01:06:07.896Z,12.80
2018-09-19T01:10:12.137Z,12.80
2018-09-19T01:14:16.310Z,12.80
2018-09-19T01:18:20.590Z,12.80
2018-09-19T01:22:24.837Z,12.70
2018-09-19T01:26:29.164Z,12.70
2018-09-19T01:30:33.364Z,12.70
2018-09-19T01:34:37.583Z,12.70
2018-09-19T01:38:41.775Z,12.70
2018-09-19T01:42:46.045Z,12.60
2018-09-19T01:46:50.235Z,12.60
2018-09-19T01:50:54.477Z,12.60
2018-09-19T01:54:58.678Z,12.60
2018-09-19T01:59:03.064Z,12.60
2018-09-19T02:03:07.289Z,12.60
2018-09-19T02:07:11.506Z,12.60
2018-09-19T02:11:15.765Z,12.60
2018-09-19T02:15:20.164Z,12.60
2018-09-19T02:19:24.381Z,12.60
2018-09-19T02:23:28.628Z,12.50
2018-09-19T02:27:33.966Z,12.50
2018-09-19T02:31:38.163Z,12.50
2018-09-19T02:35:42.422Z,12.50
2018-09-19T02:39:46.635Z,12.50
2018-09-19T02:43:51.364Z,12.50
2018-09-19T02:47:55.618Z,12.50
2018-09-19T02:52:00.353Z,12.50
2018-09-19T02:56:04.609Z,12.60
2018-09-19T03:00:09.002Z,12.50
2018-09-19T03:04:17.120Z,12.50
2018-09-19T03:08:21.337Z,12.50
2018-09-19T03:12:25.666Z,12.50
2018-09-19T03:16:29.969Z,12.40
2018-09-19T03:20:34.194Z,12.40
2018-09-19T03:24:38.393Z,12.40
2018-09-19T03:28:42.648Z,12.40
2018-09-19T03:32:46.817Z,12.40
2018-09-19T03:36:51.124Z,12.30
2018-09-19T03:40:55.332Z,12.40
2018-09-19T03:44:59.574Z,12.30
2018-09-19T03:49:03.785Z,12.30
2018-09-19T03:53:08.034Z,12.30
2018-09-19T03:57:12.301Z,12.30
2018-09-19T04:01:16.571Z,12.20
2018-09-19T04:05:20.824Z,12.30
2018-09-19T04:09:25.013Z,12.30
2018-09-19T04:13:29.248Z,12.30
2018-09-19T04:17:33.513Z,12.20
2018-09-19T04:21:42.150Z,12.30
2018-09-19T04:25:46.397Z,12.40
2018-09-19T04:29:50.716Z,12.50
2018-09-19T04:33:54.908Z,12.80
2018-09-19T04:37:59.853Z,13.00
2018-09-19T04:42:04.227Z,13.00
2018-09-19T04:46:08.407Z,13.00
2018-09-19T04:50:12.646Z,13.00
2018-09-19T04:54:16.831Z,13.10
2018-09-19T04:58:21.104Z,13.20
2018-09-19T05:02:25.283Z,13.30
2018-09-19T05:06:29.601Z,13.30
2018-09-19T05:10:33.821Z,13.30
2018-09-19T05:14:38.563Z,13.30
2018-09-19T05:18:42.908Z,13.40
2018-09-19T05:22:47.697Z,13.40
2018-09-19T05:26:51.917Z,13.50
2018-09-19T05:30:56.277Z,13.50
2018-09-19T05:35:00.567Z,13.60
2018-09-19T05:39:06.207Z,13.50
2018-09-19T05:43:10.441Z,13.60
2018-09-19T05:47:14.648Z,13.70
2018-09-19T05:51:18.891Z,13.70
2018-09-19T05:55:23.115Z,13.90
2018-09-19T05:59:27.319Z,14.00
2018-09-19T06:03:31.619Z,14.10
2018-09-19T06:07:35.792Z,14.20
2018-09-19T06:11:40.447Z,14.20
2018-09-19T06:15:44.640Z,14.40
2018-09-19T06:19:49.353Z,14.60
2018-09-19T06:23:53.571Z,14.90
2018-09-19T06:27:57.887Z,15.20
2018-09-19T06:32:03.113Z,15.40
2018-09-19T06:36:07.109Z,15.60
2018-09-19T06:40:11.505Z,15.80
2018-09-19T06:44:16.124Z,16.10
2018-09-19T06:48:20.440Z,16.40
2018-09-19T06:52:24.695Z,16.60
2018-09-19T06:56:28.879Z,16.70
2018-09-19T07:00:33.117Z,16.90
2018-09-19T07:04:37.485Z,17.00
2018-09-19T07:08:41.665Z,17.00
2018-09-19T07:12:45.889Z,17.20
2018-09-19T07:16:50.107Z,17.30
2018-09-19T07:20:54.411Z,17.60
2018-09-19T07:24:58.713Z,17.80
2018-09-19T07:29:02.909Z,18.10
2018-09-19T07:33:07.196Z,18.30
2018-09-19T07:37:11.477Z,18.80
2018-09-19T07:41:15.666Z,19.30
2018-09-19T07:45:19.903Z,19.60
2018-09-19T07:49:24.167Z,19.90
2018-09-19T07:53:34.121Z,20.00
2018-09-19T07:57:38.395Z,20.20
2018-09-19T08:01:42.627Z,20.40
2018-09-19T08:05:46.929Z,20.60
2018-09-19T08:09:51.190Z,20.80
2018-09-19T08:13:55.456Z,21.40
2018-09-19T08:17:59.754Z,21.80
2018-09-19T08:22:04.014Z,21.90
2018-09-19T08:26:08.224Z,22.10
2018-09-19T08:30:12.465Z,22.20
2018-09-19T08:34:16.641Z,22.60
2018-09-19T08:38:21.137Z,23.00
2018-09-19T08:42:25.413Z,23.20
2018-09-19T08:46:29.625Z,23.50
2018-09-19T08:50:33.925Z,23.70
2018-09-19T08:54:38.136Z,23.50
2018-09-19T08:58:42.440Z,24.00
2018-09-19T09:02:46.608Z,24.70
2018-09-19T09:06:50.798Z,24.80
2018-09-19T09:10:55.025Z,24.50
2018-09-19T09:14:59.339Z,24.70
2018-09-19T09:19:03.552Z,25.20
2018-09-19T09:23:07.862Z,25.30
2018-09-19T09:27:12.177Z,25.20
2018-09-19T09:31:16.486Z,25.40
2018-09-19T09:35:20.697Z,26.40
2018-09-19T09:39:24.892Z,25.60
2018-09-19T09:43:29.140Z,25.60
2018-09-19T09:47:33.325Z,26.20
2018-09-19T09:51:37.536Z,26.60
2018-09-19T09:55:41.733Z,26.80
2018-09-19T09:59:46.042Z,27.30
2018-09-19T10:03:50.248Z,28.00
2018-09-19T10:07:54.642Z,28.40
2018-09-19T10:11:59.976Z,30.20
2018-09-19T10:16:05.550Z,30.50
2018-09-19T10:20:11.543Z,30.20
2018-09-19T10:24:16.452Z,30.00
2018-09-19T10:28:22.315Z,29.50
2018-09-19T10:32:28.493Z,29.30
2018-09-19T10:36:33.748Z,28.60
2018-09-19T10:40:40.373Z,27.80
2018-09-19T10:44:46.217Z,29.20
2018-09-19T10:48:50.756Z,29.70
2018-09-19T10:52:55.145Z,31.40
2018-09-19T10:57:01.013Z,32.00
2018-09-19T11:01:06.902Z,31.80
2018-09-19T11:05:12.250Z,32.20
2018-09-19T11:13:17.396Z,34.00
2018-09-19T11:17:22.648Z,33.90
2018-09-19T11:21:34.344Z,34.20
2018-09-19T11:25:39.465Z,35.20
2018-09-19T11:29:45.829Z,34.20
2018-09-19T11:33:51.146Z,33.10
2018-09-19T11:37:55.486Z,31.50
2018-09-19T11:42:00.507Z,33.10
2018-09-19T11:46:04.850Z,33.60
2018-09-19T11:50:09.205Z,33.50
2018-09-19T11:54:13.511Z,33.10
2018-09-19T11:58:18.340Z,31.60
2018-09-19T12:02:22.570Z,31.20
2018-09-19T12:06:26.810Z,32.30
2018-09-19T12:10:31.137Z,33.60
2018-09-19T12:14:35.513Z,34.30
2018-09-19T12:18:39.735Z,34.10
2018-09-19T12:22:44.072Z,33.40
2018-09-19T12:26:48.731Z,32.80
2018-09-19T12:30:53.327Z,33.10
2018-09-19T12:34:57.613Z,33.50
2018-09-19T12:39:01.968Z,31.70
2018-09-19T12:43:06.246Z,31.00
2018-09-19T12:47:10.630Z,30.40
2018-09-19T12:51:15.225Z,29.50
2018-09-19T12:55:19.931Z,28.10
2018-09-19T12:59:24.755Z,27.60
2018-09-19T13:03:29.064Z,26.70
2018-09-19T13:07:33.382Z,26.70
2018-09-19T13:11:37.925Z,26.80
2018-09-19T13:15:42.376Z,26.80
2018-09-19T13:19:46.650Z,26.40
2018-09-19T13:23:50.958Z,26.00
2018-09-19T13:27:55.173Z,26.50
2018-09-19T13:31:59.562Z,26.90
2018-09-19T13:36:03.908Z,28.70
2018-09-19T13:40:08.147Z,29.30
2018-09-19T13:44:15.255Z,29.90
2018-09-19T13:48:20.084Z,31.10
2018-09-19T13:52:27.868Z,32.00
2018-09-19T13:56:32.213Z,31.70
2018-09-19T14:00:36.500Z,31.80
2018-09-19T14:04:40.778Z,32.90
2018-09-19T14:08:45.157Z,33.60
2018-09-19T14:12:49.656Z,33.00
2018-09-19T14:16:54.029Z,33.30
2018-09-19T14:20:58.223Z,34.20
2018-09-19T14:25:02.597Z,34.10
2018-09-19T14:29:07.054Z,34.20
2018-09-19T14:33:11.509Z,33.70
2018-09-19T14:37:16.176Z,34.10
2018-09-19T14:41:21.017Z,33.30
2018-09-19T14:45:25.651Z,31.20
2018-09-19T14:49:30.138Z,30.00
2018-09-19T14:53:34.379Z,29.30
2018-09-19T14:57:38.688Z,28.10
2018-09-19T15:01:42.912Z,27.30
2018-09-19T15:05:53.719Z,26.60
2018-09-19T15:09:58.096Z,26.00
2018-09-19T15:14:02.425Z,25.70
2018-09-19T15:18:06.690Z,25.60
2018-09-19T15:22:10.941Z,25.40
2018-09-19T15:26:15.217Z,25.70
2018-09-19T15:30:19.551Z,25.10
2018-09-19T15:34:23.777Z,25.00
2018-09-19T15:38:28.122Z,25.00
2018-09-19T15:42:32.363Z,25.00
2018-09-19T15:46:37.182Z,24.90
2018-09-19T15:50:42.006Z,24.50
2018-09-19T15:54:46.253Z,24.20
2018-09-19T15:58:52.413Z,23.90
2018-09-19T16:02:56.785Z,23.40
2018-09-19T16:07:01.475Z,23.00
2018-09-19T16:11:05.671Z,22.70
2018-09-19T16:15:09.881Z,22.70
2018-09-19T16:19:14.488Z,22.60
2018-09-19T16:23:18.726Z,22.60
2018-09-19T16:27:23.116Z,22.30
2018-09-19T16:31:27.606Z,22.30
2018-09-19T16:35:32.081Z,21.90
2018-09-19T16:39:36.317Z,21.80
2018-09-19T16:43:40.580Z,21.60
2018-09-19T16:47:44.828Z,21.30
2018-09-19T16:51:49.062Z,21.20
2018-09-19T16:55:53.432Z,21.00
2018-09-19T16:59:57.702Z,20.70
2018-09-19T17:04:01.929Z,20.60
2018-09-19T17:08:06.364Z,20.40
2018-09-19T17:12:10.700Z,20.20
2018-09-19T17:16:14.900Z,20.00
2018-09-19T17:20:19.159Z,19.80
2018-09-19T17:24:23.369Z,19.70
2018-09-19T17:28:28.052Z,19.50
2018-09-19T17:32:32.389Z,19.30
2018-09-19T17:36:36.610Z,19.10
2018-09-19T17:40:40.943Z,18.90
2018-09-19T17:44:45.131Z,19.00
2018-09-19T17:48:49.488Z,19.00
2018-09-19T17:52:53.742Z,18.90
2018-09-19T17:56:58.170Z,18.80
2018-09-19T18:01:02.567Z,18.70
2018-09-19T18:05:07.169Z,18.70
2018-09-19T18:09:11.429Z,18.60
2018-09-19T18:13:15.958Z,18.60
2018-09-19T18:17:20.181Z,18.50
2018-09-19T18:21:24.511Z,18.40
2018-09-19T18:25:28.860Z,18.30
2018-09-19T18:29:33.155Z,18.20
2018-09-19T18:33:37.514Z,18.00
2018-09-19T18:37:41.878Z,17.80
2018-09-19T18:41:46.404Z,17.70
2018-09-19T18:45:50.884Z,17.50
2018-09-19T18:49:55.195Z,17.40
2018-09-19T18:53:59.569Z,17.40
2018-09-19T18:58:04.075Z,17.30
2018-09-19T19:02:08.284Z,17.30
2018-09-19T19:06:12.566Z,17.10
2018-09-19T19:10:18.488Z,17.10
2018-09-19T19:14:23.197Z,17.00
2018-09-19T19:18:27.904Z,17.00
2018-09-19T19:22:32.798Z,16.90
2018-09-19T19:26:37.082Z,16.90
2018-09-19T19:30:41.486Z,16.80
2018-09-19T19:34:45.678Z,16.70
2018-09-19T19:38:50.417Z,16.60
2018-09-19T19:42:55.124Z,16.50
2018-09-19T19:46:59.629Z,16.40
2018-09-19T19:51:03.925Z,16.40
2018-09-19T19:55:08.196Z,16.30
2018-09-19T19:59:12.541Z,16.30
2018-09-19T20:03:16.796Z,16.30
2018-09-19T20:07:21.069Z,16.30
2018-09-19T20:11:25.506Z,16.20
2018-09-19T20:15:29.777Z,16.20
2018-09-19T20:19:34.014Z,16.10
2018-09-19T20:23:38.452Z,16.00
2018-09-19T20:27:43.032Z,15.90
2018-09-19T20:31:47.353Z,15.90
2018-09-19T20:35:51.521Z,15.80
2018-09-19T20:39:55.984Z,15.80
2018-09-19T20:44:00.296Z,15.80
2018-09-19T20:48:04.600Z,15.70
2018-09-19T20:52:08.868Z,15.70
2018-09-19T20:56:13.277Z,15.50
2018-09-19T21:00:17.552Z,15.50
2018-09-19T21:04:21.966Z,15.60
2018-09-19T21:08:26.155Z,15.60
2018-09-19T21:12:30.407Z,15.50
2018-09-19T21:16:34.616Z,15.40
2018-09-19T21:20:38.852Z,15.30
2018-09-19T21:24:43.053Z,15.20
2018-09-19T21:28:47.281Z,15.20
2018-09-19T21:32:51.491Z,15.20
2018-09-19T21:36:55.733Z,15.20
2018-09-19T21:40:59.913Z,15.20
2018-09-19T21:45:04.352Z,15.10
2018-09-19T21:49:08.656Z,15.00
2018-09-19T21:53:12.928Z,15.00
2018-09-19T21:57:17.205Z,14.90
2018-09-19T22:01:26.393Z,14.90
2018-09-19T22:05:30.725Z,14.80
2018-09-19T22:09:35.103Z,14.90
2018-09-19T22:13:39.418Z,14.80
2018-09-19T22:17:43.716Z,14.70
2018-09-19T22:21:47.929Z,14.70
2018-09-19T22:25:52.197Z,14.60
2018-09-19T22:29:56.439Z,14.50
2018-09-19T22:34:00.884Z,14.50
2018-09-19T22:38:05.113Z,14.50
2018-09-19T22:42:09.408Z,14.50
2018-09-19T22:46:13.928Z,14.40
2018-09-19T22:50:18.241Z,14.50
2018-09-19T22:54:22.452Z,14.60
2018-09-19T22:58:26.942Z,14.40
2018-09-19T23:02:31.177Z,14.30
2018-09-19T23:06:35.507Z,14.20
2018-09-19T23:10:39.713Z,14.20
2018-09-19T23:14:43.905Z,14.10
2018-09-19T23:18:48.144Z,14.10
2018-09-19T23:22:52.408Z,14.20
2018-09-19T23:26:56.610Z,14.20
2018-09-19T23:31:00.940Z,14.10
2018-09-19T23:35:05.177Z,14.00
2018-09-19T23:39:10.334Z,14.00
2018-09-19T23:43:14.532Z,13.90
2018-09-19T23:47:18.792Z,13.90
2018-09-19T23:51:23.036Z,13.90
2018-09-19T23:55:27.286Z,13.90
2018-09-19T23:59:31.567Z,13.80
